Time;durP1;ratioP1;P1;durP2;ratioP2;P2;SDS_P1;SDS_P2;PMS_P1;PMS_P2;Temp;Humidity;BMP_temperature;BMP_pressure;BME280_temperature;BME280_humidity;BME280_pressure;Samples;Min_cycle;Max_cycle;Signal;HPM_P1;HPM_P2
2023/03/08 00:00:33;;;;;;;9.80;3.40;;;;;;;0.00;100.00;99844.91;4989211;28;20681;-70
2023/03/08 00:02:58;;;;;;;8.60;3.30;;;;;;;-0.01;100.00;99853.22;4986046;28;20302;-70
2023/03/08 00:05:24;;;;;;;9.63;3.23;;;;;;;-0.01;100.00;99849.06;4987303;28;20207;-70
2023/03/08 00:07:53;;;;;;;7.20;3.40;;;;;;;-0.02;100.00;99849.88;4988342;28;20569;-70
2023/03/08 00:10:18;;;;;;;8.30;3.33;;;;;;;-0.03;100.00;99847.28;4984958;28;20556;-70
2023/03/08 00:12:44;;;;;;;7.90;3.47;;;;;;;-0.05;100.00;99857.25;4987424;28;20230;-70
2023/03/08 00:15:10;;;;;;;7.47;3.60;;;;;;;-0.09;100.00;99852.88;4987505;28;20234;-70
2023/03/08 00:17:37;;;;;;;5.13;2.80;;;;;;;-0.09;100.00;99862.09;4983962;28;20192;-70
2023/03/08 00:20:07;;;;;;;5.40;3.50;;;;;;;-0.08;100.00;99869.69;4988164;28;20250;-70
2023/03/08 00:22:40;;;;;;;6.37;3.47;;;;;;;-0.06;100.00;99872.28;4984577;28;20287;-70
2023/03/08 00:25:07;;;;;;;5.90;3.37;;;;;;;-0.04;100.00;99863.16;4989821;28;20223;-70
2023/03/08 00:27:34;;;;;;;6.27;3.77;;;;;;;0.01;100.00;99859.19;4983469;28;20636;-70
2023/03/08 00:29:59;;;;;;;9.73;3.87;;;;;;;0.01;100.00;99865.06;4980404;28;20661;-70
2023/03/08 00:32:25;;;;;;;7.87;3.67;;;;;;;0.01;100.00;99867.59;4984890;28;20223;-70
2023/03/08 00:34:52;;;;;;;5.77;3.33;;;;;;;0.01;100.00;99871.78;4988635;28;20230;-70
2023/03/08 00:37:18;;;;;;;7.37;3.60;;;;;;;0.04;100.00;99869.38;4986123;28;20339;-70
2023/03/08 00:39:53;;;;;;;6.67;3.87;;;;;;;0.01;100.00;99869.25;4988956;28;20620;-70
2023/03/08 00:42:19;;;;;;;9.57;3.70;;;;;;;-0.04;100.00;99869.03;4979296;28;20204;-70
2023/03/08 00:44:45;;;;;;;13.83;4.53;;;;;;;-0.05;100.00;99869.84;4988846;28;20331;-70
2023/03/08 00:47:11;;;;;;;7.37;3.73;;;;;;;-0.07;100.00;99871.44;4986668;28;20287;-70
2023/03/08 00:49:36;;;;;;;4.87;3.53;;;;;;;-0.09;100.00;99879.72;4989238;28;20187;-70
2023/03/08 00:52:02;;;;;;;6.47;3.90;;;;;;;-0.12;100.00;99877.91;4981980;28;20253;-70
2023/03/08 00:54:31;;;;;;;5.47;3.53;;;;;;;-0.15;100.00;99882.78;4985339;28;20213;-70
2023/03/08 00:56:56;;;;;;;10.03;3.70;;;;;;;-0.21;100.00;99885.03;4988661;28;20238;-70
2023/03/08 00:59:22;;;;;;;7.97;4.17;;;;;;;-0.21;100.00;99895.09;4982965;28;20283;-70
2023/03/08 01:01:47;;;;;;;9.50;3.70;;;;;;;-0.22;100.00;99890.00;4981322;28;20655;-70
2023/03/08 01:04:13;;;;;;;9.50;3.97;;;;;;;-0.24;100.00;99891.56;4983469;28;20300;-70
2023/03/08 01:06:39;;;;;;;6.10;4.00;;;;;;;-0.26;100.00;99895.66;4988402;28;20207;-70
2023/03/08 01:09:09;;;;;;;7.33;4.40;;;;;;;-0.25;100.00;99895.75;4983783;28;20623;-70
2023/03/08 01:11:35;;;;;;;6.93;4.13;;;;;;;-0.26;100.00;99893.16;4987039;28;20200;-70
2023/03/08 01:14:03;;;;;;;10.93;5.03;;;;;;;-0.29;100.00;99893.00;4977104;28;20299;-70
2023/03/08 01:16:31;;;;;;;8.53;4.07;;;;;;;-0.28;100.00;99879.63;4982710;28;20189;-70
2023/03/08 01:18:59;;;;;;;8.10;4.50;;;;;;;-0.30;100.00;99888.78;4987101;28;20200;-70
2023/03/08 01:21:27;;;;;;;8.77;4.40;;;;;;;-0.33;100.00;99881.09;4983472;28;20283;-71
2023/03/08 01:23:53;;;;;;;7.97;4.37;;;;;;;-0.36;100.00;99880.97;4986959;28;20579;-70
2023/03/08 01:26:22;;;;;;;9.63;4.47;;;;;;;-0.39;100.00;99878.28;4992343;28;20274;-70
2023/03/08 01:28:49;;;;;;;7.20;4.57;;;;;;;-0.38;100.00;99873.34;4988362;28;20228;-71
2023/03/08 01:31:18;;;;;;;9.60;4.60;;;;;;;-0.42;100.00;99878.13;4989015;28;20237;-71
2023/03/08 01:33:44;;;;;;;9.67;4.80;;;;;;;-0.39;100.00;99874.13;4995397;28;20223;-71
2023/03/08 01:36:12;;;;;;;8.53;4.47;;;;;;;-0.42;100.00;99875.63;4976983;28;20200;-71
2023/03/08 01:38:37;;;;;;;7.60;4.40;;;;;;;-0.46;100.00;99878.81;4983652;28;20210;-70
2023/03/08 01:41:06;;;;;;;7.30;4.67;;;;;;;-0.50;100.00;99869.41;4984620;28;20196;-70
2023/03/08 01:43:35;;;;;;;9.20;5.23;;;;;;;-0.53;100.00;99866.75;4968872;28;20231;-71
2023/03/08 01:46:04;;;;;;;9.07;4.73;;;;;;;-0.52;100.00;99866.81;4992893;28;20564;-70
2023/03/08 01:48:38;;;;;;;7.57;5.50;;;;;;;-0.54;100.00;99872.56;4980748;28;20203;-71
2023/03/08 01:51:09;;;;;;;7.43;4.67;;;;;;;-0.57;100.00;99862.34;4985507;28;20191;-68
2023/03/08 01:53:37;;;;;;;9.43;5.37;;;;;;;-0.58;100.00;99863.16;5000197;28;20226;-70
2023/03/08 01:56:07;;;;;;;8.40;5.40;;;;;;;-0.61;100.00;99861.34;4979247;28;20219;-68
2023/03/08 01:58:33;;;;;;;9.53;5.47;;;;;;;-0.61;100.00;99876.44;4982909;28;20595;-70
2023/03/08 02:00:59;;;;;;;8.13;5.50;;;;;;;-0.64;100.00;99870.41;4984998;28;20195;-70
2023/03/08 02:03:25;;;;;;;10.17;5.90;;;;;;;-0.68;100.00;99874.41;4970752;28;20211;-70
2023/03/08 02:05:50;;;;;;;11.27;5.90;;;;;;;-0.67;100.00;99868.63;4983151;28;20192;-70
2023/03/08 02:08:19;;;;;;;12.37;6.33;;;;;;;-0.68;100.00;99871.06;4976196;28;20215;-71
2023/03/08 02:10:45;;;;;;;10.93;6.00;;;;;;;-0.70;100.00;99873.50;4987939;28;20188;-70
2023/03/08 02:13:11;;;;;;;11.97;6.57;;;;;;;-0.68;100.00;99873.56;4983849;28;20219;-70
2023/03/08 02:15:40;;;;;;;12.13;7.03;;;;;;;-0.68;100.00;99876.06;4984097;28;20198;-70
2023/03/08 02:18:06;;;;;;;8.63;6.20;;;;;;;-0.69;100.00;99866.81;4982854;28;20278;-70
2023/03/08 02:20:37;;;;;;;9.03;5.77;;;;;;;-0.73;100.00;99865.78;4978465;28;20308;-70
2023/03/08 02:23:16;;;;;;;8.37;6.47;;;;;;;-0.68;100.00;99869.38;4987310;28;20188;-70
2023/03/08 02:25:49;;;;;;;11.40;6.40;;;;;;;-0.62;100.00;99868.81;4985359;28;20286;-70
2023/03/08 02:28:15;;;;;;;9.23;6.40;;;;;;;-0.56;100.00;99864.94;4985019;28;20191;-70
2023/03/08 02:30:40;;;;;;;9.20;6.50;;;;;;;-0.49;100.00;99871.13;4981840;28;20720;-70
2023/03/08 02:33:06;;;;;;;13.63;7.10;;;;;;;-0.44;100.00;99868.03;4980184;28;20246;-70
2023/03/08 02:35:31;;;;;;;9.83;7.13;;;;;;;-0.43;100.00;99867.25;4983897;28;20188;-70
2023/03/08 02:37:57;;;;;;;10.77;7.33;;;;;;;-0.41;100.00;99863.13;4987171;28;20201;-70
2023/03/08 02:40:23;;;;;;;10.73;8.00;;;;;;;-0.40;100.00;99862.34;4981532;28;20188;-70
2023/03/08 02:42:48;;;;;;;13.27;8.30;;;;;;;-0.38;100.00;99862.41;4977197;28;20739;-70
2023/03/08 02:45:14;;;;;;;9.87;7.47;;;;;;;-0.37;100.00;99867.50;4981297;28;20235;-70
2023/03/08 02:47:39;;;;;;;12.47;8.90;;;;;;;-0.31;100.00;99859.41;4966057;28;20571;-69
2023/03/08 02:50:05;;;;;;;13.53;9.03;;;;;;;-0.29;100.00;99861.19;4983364;28;20187;-70
2023/03/08 02:52:31;;;;;;;12.47;8.90;;;;;;;-0.27;100.00;99863.78;4985766;28;20771;-70
2023/03/08 02:54:56;;;;;;;13.37;8.97;;;;;;;-0.27;100.00;99857.09;4986336;28;20270;-69
2023/03/08 02:57:23;;;;;;;15.77;9.80;;;;;;;-0.25;100.00;99857.16;4996663;28;20724;-70
2023/03/08 02:59:50;;;;;;;18.30;10.73;;;;;;;-0.22;100.00;99874.91;4987272;28;20192;-70
2023/03/08 03:02:16;;;;;;;17.23;11.40;;;;;;;-0.18;100.00;99875.09;4985368;28;20194;-70
2023/03/08 03:04:42;;;;;;;18.03;10.93;;;;;;;-0.15;100.00;99871.88;4981515;28;20222;-70
2023/03/08 03:07:07;;;;;;;20.23;12.17;;;;;;;-0.13;100.00;99866.13;4979011;28;20192;-70
2023/03/08 03:09:34;;;;;;;18.50;12.07;;;;;;;-0.11;100.00;99867.06;4982761;28;20200;-70
2023/03/08 03:12:00;;;;;;;19.90;12.50;;;;;;;-0.09;100.00;99873.00;4985617;28;21023;-70
2023/03/08 03:14:27;;;;;;;24.37;13.33;;;;;;;-0.06;100.00;99864.72;4981650;28;20215;-70
2023/03/08 03:16:53;;;;;;;21.77;12.33;;;;;;;-0.07;100.00;99868.94;4979216;28;20188;-70
2023/03/08 03:19:19;;;;;;;23.47;14.23;;;;;;;-0.03;100.00;99867.41;4978762;28;20254;-70
2023/03/08 03:21:44;;;;;;;24.37;13.57;;;;;;;-0.03;100.00;99865.72;4962864;28;20188;-70
2023/03/08 03:24:10;;;;;;;21.57;13.30;;;;;;;-0.01;100.00;99874.22;4985054;28;20215;-70
2023/03/08 03:26:50;;;;;;;22.47;13.33;;;;;;;0.04;100.00;99870.25;4982662;28;20197;-70
2023/03/08 03:29:18;;;;;;;24.20;14.20;;;;;;;0.06;100.00;99877.88;4978326;28;20254;-70
2023/03/08 03:31:47;;;;;;;29.50;13.87;;;;;;;0.10;100.00;99874.69;4982460;28;20188;-70
2023/03/08 03:34:14;;;;;;;25.90;13.87;;;;;;;0.12;100.00;99880.66;4988213;28;20740;-70
2023/03/08 03:36:41;;;;;;;23.17;13.97;;;;;;;0.16;100.00;99882.50;4990096;28;20676;-70
2023/03/08 03:39:09;;;;;;;27.53;14.70;;;;;;;0.17;100.00;99878.34;4982393;28;20193;-70
2023/03/08 03:41:36;;;;;;;23.27;14.57;;;;;;;0.18;100.00;99875.88;4989981;28;20703;-69
2023/03/08 03:44:09;;;;;;;25.43;14.73;;;;;;;0.19;100.00;99872.59;4965940;28;20227;-70
2023/03/08 03:46:35;;;;;;;30.53;15.73;;;;;;;0.22;100.00;99872.72;4989974;28;20187;-70
2023/03/08 03:49:01;;;;;;;26.03;15.03;;;;;;;0.24;100.00;99871.97;4990883;28;20250;-70
2023/03/08 03:51:33;;;;;;;28.03;15.30;;;;;;;0.26;100.00;99867.03;4982372;28;20623;-70
2023/03/08 03:54:11;;;;;;;30.20;14.47;;;;;;;0.24;100.00;99863.59;4988451;28;20224;-70
2023/03/08 03:56:38;;;;;;;26.27;15.10;;;;;;;0.26;100.00;99864.50;4961086;28;20222;-70
2023/03/08 03:59:05;;;;;;;23.63;15.07;;;;;;;0.27;100.00;99865.38;4989248;28;20202;-70
2023/03/08 04:01:32;;;;;;;25.47;14.13;;;;;;;0.29;100.00;99869.69;4982507;28;20196;-70
2023/03/08 04:04:12;;;;;;;26.60;14.47;;;;;;;0.28;100.00;99866.28;4985344;28;20212;-70
2023/03/08 04:06:41;;;;;;;26.73;14.73;;;;;;;0.30;100.00;99873.91;4987196;28;20196;-70
2023/03/08 04:09:13;;;;;;;25.27;14.47;;;;;;;0.31;100.00;99864.72;4983855;28;20192;-70
2023/03/08 04:11:40;;;;;;;24.00;13.53;;;;;;;0.28;100.00;99861.25;4983443;28;20205;-70
2023/03/08 04:14:11;;;;;;;21.13;13.63;;;;;;;0.28;100.00;99861.25;4985265;28;20750;-70
2023/03/08 04:16:38;;;;;;;22.13;13.50;;;;;;;0.28;100.00;99866.28;4969592;28;20311;-70
2023/03/08 04:19:11;;;;;;;25.10;14.13;;;;;;;0.28;100.00;99861.25;4986277;28;20200;-70
2023/03/08 04:21:39;;;;;;;26.97;14.33;;;;;;;0.29;100.00;99857.09;4974047;28;20973;-70
2023/03/08 04:24:06;;;;;;;21.83;13.60;;;;;;;0.32;100.00;99866.44;4977843;28;20291;-70
2023/03/08 04:26:32;;;;;;;22.63;13.37;;;;;;;0.32;100.00;99854.69;4979285;28;20204;-70
2023/03/08 04:28:57;;;;;;;23.83;14.23;;;;;;;0.35;100.00;99852.31;4985994;28;20527;-70
2023/03/08 04:31:27;;;;;;;19.60;12.77;;;;;;;0.37;100.00;99847.34;4986209;28;20191;-70
2023/03/08 04:33:55;;;;;;;21.40;13.33;;;;;;;0.38;100.00;99857.50;4985121;28;20246;-71
2023/03/08 04:36:21;;;;;;;26.00;14.10;;;;;;;0.39;100.00;99859.22;4981414;28;20281;-70
2023/03/08 04:38:48;;;;;;;23.37;13.83;;;;;;;0.41;100.00;99852.56;4980477;28;20231;-70
2023/03/08 04:41:15;;;;;;;24.27;13.53;;;;;;;0.43;100.00;99858.56;4982525;28;20183;-70
2023/03/08 04:43:53;;;;;;;21.67;13.17;;;;;;;0.43;100.00;99856.88;4987915;28;20220;-70
2023/03/08 04:46:26;;;;;;;20.87;12.37;;;;;;;0.45;100.00;99856.09;4986876;28;20807;-70
2023/03/08 04:48:54;;;;;;;20.50;12.30;;;;;;;0.47;100.00;99860.41;4979687;28;20223;-70
2023/03/08 04:51:21;;;;;;;22.57;13.33;;;;;;;0.46;100.00;99865.38;4983896;28;20247;-70
2023/03/08 04:53:47;;;;;;;18.60;12.33;;;;;;;0.49;100.00;99861.31;4980119;28;20263;-70
2023/03/08 04:56:15;;;;;;;16.33;11.60;;;;;;;0.51;100.00;99864.78;4969722;28;20267;-70
2023/03/08 04:58:41;;;;;;;17.27;11.77;;;;;;;0.52;100.00;99867.34;4971150;28;20196;-70
2023/03/08 05:01:09;;;;;;;21.17;12.27;;;;;;;0.51;100.00;99867.31;4969271;28;20897;-70
2023/03/08 05:03:34;;;;;;;16.40;11.70;;;;;;;0.55;100.00;99871.63;4968521;28;20204;-70
2023/03/08 05:06:00;;;;;;;16.60;11.93;;;;;;;0.56;100.00;99865.84;4970026;28;20200;-70
2023/03/08 05:08:26;;;;;;;16.10;10.53;;;;;;;0.59;100.00;99865.94;4955620;28;20670;-70
2023/03/08 05:10:57;;;;;;;15.20;10.67;;;;;;;0.60;100.00;99874.38;4957063;28;20196;-70
2023/03/08 05:13:24;;;;;;;15.67;10.20;;;;;;;0.58;100.00;99871.78;4968933;28;20564;-71
2023/03/08 05:15:51;;;;;;;16.73;10.23;;;;;;;0.60;100.00;99875.25;4952554;28;20564;-70
2023/03/08 05:18:18;;;;;;;17.20;10.37;;;;;;;0.61;100.00;99871.06;4969732;28;20275;-70
2023/03/08 05:20:44;;;;;;;18.50;10.40;;;;;;;0.64;100.00;99867.00;4975015;28;20684;-70
2023/03/08 05:23:10;;;;;;;19.23;10.97;;;;;;;0.65;100.00;99868.75;4969626;28;20191;-70
2023/03/08 05:25:42;;;;;;;19.03;11.17;;;;;;;0.65;100.00;99872.91;4972090;28;20283;-70
2023/03/08 05:28:09;;;;;;;22.47;10.77;;;;;;;0.66;100.00;99872.09;4968478;28;20268;-70
2023/03/08 05:30:35;;;;;;;22.37;12.27;;;;;;;0.66;100.00;99867.94;4969073;28;20201;-70
2023/03/08 05:33:00;;;;;;;16.43;9.97;;;;;;;0.67;100.00;99866.25;4968013;28;20214;-70
2023/03/08 05:35:26;;;;;;;16.93;9.57;;;;;;;0.67;100.00;99868.78;4970697;28;20212;-70
2023/03/08 05:37:51;;;;;;;17.57;9.50;;;;;;;0.65;100.00;99877.94;4971908;28;20275;-70
2023/03/08 05:40:17;;;;;;;16.50;9.33;;;;;;;0.65;100.00;99878.81;4974786;28;20911;-70
2023/03/08 05:42:44;;;;;;;14.53;8.80;;;;;;;0.67;100.00;99873.81;4968964;28;20192;-70
2023/03/08 05:45:11;;;;;;;15.03;8.90;;;;;;;0.66;100.00;99862.91;4971433;28;20567;-70
2023/03/08 05:47:38;;;;;;;15.97;8.73;;;;;;;0.70;100.00;99872.31;4969444;28;20196;-70
2023/03/08 05:50:07;;;;;;;11.53;7.23;;;;;;;0.70;100.00;99872.31;4971719;28;20938;-70
2023/03/08 05:52:35;;;;;;;12.50;7.83;;;;;;;0.70;100.00;99874.84;4971271;28;20291;-70
2023/03/08 05:55:01;;;;;;;14.80;7.57;;;;;;;0.71;100.00;99875.66;4971790;28;20711;-70
2023/03/08 05:57:27;;;;;;;15.50;8.40;;;;;;;0.68;100.00;99878.09;4973572;28;20287;-70
2023/03/08 05:59:52;;;;;;;15.23;8.73;;;;;;;0.69;100.00;99870.56;4971436;28;20212;-70
2023/03/08 06:02:20;;;;;;;14.87;8.90;;;;;;;0.67;100.00;99869.66;4971382;28;20872;-69
2023/03/08 06:04:48;;;;;;;13.50;8.37;;;;;;;0.66;100.00;99877.13;4972266;28;20243;-70
2023/03/08 06:07:17;;;;;;;15.47;9.27;;;;;;;0.68;100.00;99876.41;4968048;28;20662;-70
2023/03/08 06:09:50;;;;;;;12.53;8.03;;;;;;;0.66;100.00;99869.59;4971550;28;20254;-70
2023/03/08 06:12:16;;;;;;;10.17;7.23;;;;;;;0.68;100.00;99876.41;4963345;28;20252;-70
2023/03/08 06:14:44;;;;;;;16.53;8.57;;;;;;;0.70;100.00;99873.97;4971469;28;20223;-70
2023/03/08 06:17:11;;;;;;;13.37;8.27;;;;;;;0.68;100.00;99873.88;4967411;28;20199;-70
2023/03/08 06:19:41;;;;;;;11.20;7.73;;;;;;;0.62;100.00;99870.25;4970450;28;20204;-70
2023/03/08 06:22:06;;;;;;;12.23;7.67;;;;;;;0.66;100.00;99874.63;4972796;28;20198;-70
2023/03/08 06:24:32;;;;;;;11.90;7.70;;;;;;;0.65;100.00;99867.88;4967671;28;20236;-70
2023/03/08 06:27:00;;;;;;;12.93;7.27;;;;;;;0.65;100.00;99865.34;4967959;28;20769;-70
2023/03/08 06:29:25;;;;;;;12.00;7.53;;;;;;;0.66;100.00;99867.94;4965588;28;20283;-70
2023/03/08 06:31:51;;;;;;;13.10;7.73;;;;;;;0.72;100.00;99870.72;4969854;28;20231;-71
2023/03/08 06:34:19;;;;;;;12.00;7.50;;;;;;;0.75;100.00;99864.94;4951575;28;20311;-70
2023/03/08 06:36:48;;;;;;;13.83;8.00;;;;;;;0.79;100.00;99867.66;4971608;28;20290;-70
2023/03/08 06:39:13;;;;;;;10.23;6.83;;;;;;;0.82;100.00;99871.97;4970860;28;20718;-70
2023/03/08 06:41:39;;;;;;;10.80;7.70;;;;;;;0.83;100.00;99874.53;4953011;28;20203;-70
2023/03/08 06:44:05;;;;;;;10.63;7.40;;;;;;;0.84;100.00;99865.31;4965322;28;20209;-70
2023/03/08 06:46:31;;;;;;;10.43;7.57;;;;;;;0.88;100.00;99868.03;4964624;28;20605;-71
2023/03/08 06:48:56;;;;;;;12.70;7.57;;;;;;;0.89;100.00;99869.75;4971393;28;20275;-70
2023/03/08 06:51:22;;;;;;;15.77;8.07;;;;;;;0.90;100.00;99874.00;4968722;28;20279;-70
2023/03/08 06:53:49;;;;;;;10.83;7.20;;;;;;;0.88;100.00;99872.22;4972939;28;20224;-70
2023/03/08 06:56:18;;;;;;;13.27;8.23;;;;;;;0.86;100.00;99876.34;4970674;28;20195;-70
2023/03/08 06:58:44;;;;;;;13.23;7.33;;;;;;;0.81;100.00;99880.28;4972564;28;20195;-70
2023/03/08 07:01:11;;;;;;;11.67;7.77;;;;;;;0.83;100.00;99886.28;4971575;28;20575;-70
2023/03/08 07:03:37;;;;;;;11.10;7.63;;;;;;;0.86;100.00;99876.34;4970651;28;20213;-70
2023/03/08 07:06:06;;;;;;;11.10;7.50;;;;;;;0.89;100.00;99867.25;4968399;28;20192;-70
2023/03/08 07:08:32;;;;;;;13.07;7.50;;;;;;;0.94;100.00;99873.31;4976801;28;20203;-70
2023/03/08 07:10:58;;;;;;;12.80;7.73;;;;;;;0.95;100.00;99875.03;4972385;28;20188;-70
2023/03/08 07:13:23;;;;;;;13.63;7.73;;;;;;;0.95;100.00;99882.59;4972458;28;20873;-70
2023/03/08 07:15:52;;;;;;;11.83;8.37;;;;;;;1.00;100.00;99880.28;4964217;28;20658;-70
2023/03/08 07:18:18;;;;;;;14.03;8.10;;;;;;;1.02;100.00;99888.75;4975997;28;20192;-70
2023/03/08 07:20:44;;;;;;;11.60;7.93;;;;;;;1.01;100.00;99885.34;4981918;28;20293;-70
2023/03/08 07:23:09;;;;;;;12.43;7.90;;;;;;;0.99;100.00;99881.94;4992364;28;20203;-70
2023/03/08 07:25:38;;;;;;;10.43;7.00;;;;;;;1.03;100.00;99880.38;4992100;28;20660;-70
2023/03/08 07:28:04;;;;;;;8.87;6.63;;;;;;;1.08;100.00;99879.78;4993188;28;20685;-70
2023/03/08 07:30:29;;;;;;;12.80;7.33;;;;;;;1.11;100.00;99874.88;4995616;28;20199;-70
2023/03/08 07:32:55;;;;;;;11.47;7.03;;;;;;;1.21;100.00;99871.06;4995440;28;20251;-70
2023/03/08 07:35:20;;;;;;;15.03;7.77;;;;;;;1.26;100.00;99872.09;4995435;28;20673;-70
2023/03/08 07:37:47;;;;;;;12.13;6.77;;;;;;;1.28;100.00;99868.00;4996033;28;20205;-70
2023/03/08 07:40:15;;;;;;;12.90;7.23;;;;;;;1.26;100.00;99875.50;4992298;28;20214;-70
2023/03/08 07:42:41;;;;;;;10.73;7.13;;;;;;;1.21;100.00;99871.06;4996526;28;20533;-70
2023/03/08 07:45:38;;;;;;;16.40;7.90;;;;;;;1.18;100.00;99869.28;4998819;28;20219;-70
2023/03/08 07:48:04;;;;;;;12.13;7.47;;;;;;;1.17;100.00;99871.72;4994501;28;20548;-70
2023/03/08 07:50:30;;;;;;;10.30;7.07;;;;;;;1.17;100.00;99874.25;4993306;28;20203;-70
2023/03/08 07:52:55;;;;;;;10.57;7.10;;;;;;;1.19;100.00;99878.56;4995775;28;20281;-70
2023/03/08 07:55:21;;;;;;;15.17;7.23;;;;;;;1.18;100.00;99884.41;4996274;28;20204;-70
2023/03/08 07:57:46;;;;;;;11.67;6.93;;;;;;;1.16;100.00;99880.09;4994538;28;20203;-70
2023/03/08 08:00:12;;;;;;;10.27;6.80;;;;;;;1.12;100.00;99885.81;4994391;28;20192;-70
2023/03/08 08:02:38;;;;;;;10.67;7.10;;;;;;;1.16;100.00;99877.56;4997631;28;20222;-70
2023/03/08 08:05:04;;;;;;;11.20;7.07;;;;;;;1.16;100.00;99877.56;4991828;28;20212;-70
2023/03/08 08:07:30;;;;;;;11.97;6.93;;;;;;;1.20;100.00;99875.25;4996808;28;20565;-70
2023/03/08 08:09:56;;;;;;;11.27;7.40;;;;;;;1.26;100.00;99883.06;4996601;28;20801;-70
2023/03/08 08:12:22;;;;;;;10.13;6.90;;;;;;;1.36;100.00;99867.47;4988014;28;20220;-70
2023/03/08 08:14:50;;;;;;;12.07;6.90;;;;;;;1.43;100.00;99874.50;4996066;28;20214;-70
2023/03/08 08:17:17;;;;;;;11.30;7.20;;;;;;;1.52;100.00;99874.00;4990517;28;20669;-70
2023/03/08 08:19:43;;;;;;;10.00;5.83;;;;;;;1.53;100.00;99865.63;4991643;28;20318;-70
2023/03/08 08:22:08;;;;;;;10.50;6.30;;;;;;;1.56;100.00;99870.78;4993424;28;20232;-70
2023/03/08 08:24:34;;;;;;;10.17;6.37;;;;;;;1.57;100.00;99872.50;4995527;28;20214;-70
2023/03/08 08:27:00;;;;;;;12.07;6.43;;;;;;;1.65;100.00;99872.00;4992930;28;20191;-70
2023/03/08 08:29:25;;;;;;;11.43;6.73;;;;;;;1.68;100.00;99871.25;4996550;28;20310;-70
2023/03/08 08:31:51;;;;;;;11.47;6.90;;;;;;;1.69;100.00;99871.31;4991013;28;20200;-70
2023/03/08 08:34:18;;;;;;;12.97;7.67;;;;;;;1.72;100.00;99873.97;4992686;28;20254;-70
2023/03/08 08:36:44;;;;;;;10.20;6.53;;;;;;;1.72;100.00;99868.91;4985691;28;20660;-70
2023/03/08 08:39:10;;;;;;;9.83;6.83;;;;;;;1.72;100.00;99875.59;4994866;28;20191;-70
2023/03/08 08:41:35;;;;;;;12.87;7.37;;;;;;;1.74;100.00;99871.50;4994105;28;20290;-70
2023/03/08 08:44:01;;;;;;;9.17;6.90;;;;;;;1.80;100.00;99881.81;4995830;28;23793;-70
2023/03/08 08:46:27;;;;;;;12.07;6.67;;;;;;;1.79;100.00;99886.00;4994978;28;20218;-70
2023/03/08 08:48:53;;;;;;;11.30;6.80;;;;;;;1.81;100.00;99875.97;4991110;28;20227;-70
2023/03/08 08:51:19;;;;;;;10.60;6.57;;;;;;;1.89;100.00;99877.97;4994875;28;20203;-70
2023/03/08 08:53:45;;;;;;;10.30;5.83;;;;;;;1.96;100.00;99879.91;4996186;28;20214;-70
2023/03/08 08:56:11;;;;;;;9.30;6.33;;;;;;;2.00;100.00;99878.38;4992934;28;20208;-70
2023/03/08 08:58:37;;;;;;;9.80;6.20;;;;;;;2.02;100.00;99874.25;4992839;28;20199;-71
2023/03/08 09:01:02;;;;;;;8.67;6.37;;;;;;;2.07;100.00;99875.28;4994973;28;20212;-69
2023/03/08 09:03:28;;;;;;;9.13;5.87;;;;;;;2.16;100.00;99883.19;4977416;28;20220;-70
2023/03/08 09:05:56;;;;;;;10.23;5.63;;;;;;;2.16;100.00;99881.50;4972494;28;20853;-70
2023/03/08 09:08:21;;;;;;;8.20;5.97;;;;;;;2.22;100.00;99870.78;4957860;28;20239;-70
2023/03/08 09:10:47;;;;;;;7.33;5.83;;;;;;;2.29;100.00;99860.13;4974753;28;20215;-69
2023/03/08 09:13:12;;;;;;;8.37;5.83;;;;;;;2.29;100.00;99863.47;4971976;28;20300;-70
2023/03/08 09:15:38;;;;;;;8.67;5.80;;;;;;;2.50;100.00;99858.31;4974965;28;20789;-70
2023/03/08 09:18:04;;;;;;;9.30;5.70;;;;;;;2.47;100.00;99855.69;4968106;28;20219;-70
2023/03/08 09:20:30;;;;;;;11.47;5.70;;;;;;;2.64;100.00;99855.47;4978768;28;20205;-70
2023/03/08 09:22:55;;;;;;;8.07;5.50;;;;;;;2.84;100.00;99849.41;4969689;28;20200;-70
2023/03/08 09:25:22;;;;;;;10.53;5.80;;;;;;;2.96;100.00;99846.44;4974341;28;20283;-70
2023/03/08 09:27:48;;;;;;;8.07;5.17;;;;;;;2.86;100.00;99836.84;4971776;28;20206;-70
2023/03/08 09:30:16;;;;;;;6.70;5.47;;;;;;;2.94;100.00;99837.97;4975675;28;20908;-71
2023/03/08 09:32:41;;;;;;;7.50;5.30;;;;;;;2.98;100.00;99817.88;4970031;28;20215;-70
2023/03/08 09:35:07;;;;;;;8.70;5.70;;;;;;;3.11;100.00;99821.66;4966849;28;20795;-69
2023/03/08 09:37:32;;;;;;;7.67;5.27;;;;;;;3.26;100.00;99838.16;4988864;28;20208;-70
2023/03/08 09:39:58;;;;;;;10.17;4.80;;;;;;;3.21;100.00;99831.25;4988026;28;20282;-71
2023/03/08 09:42:28;;;;;;;9.37;4.87;;;;;;;3.16;100.00;99825.19;4988660;28;20247;-69
2023/03/08 09:45:21;;;;;;;6.17;4.37;;;;;;;3.16;100.00;99820.13;4987276;28;20207;-68
2023/03/08 09:48:06;;;;;;;6.80;4.60;;;;;;;3.08;100.00;99819.03;4978133;28;20204;-71
2023/03/08 09:50:46;;;;;;;6.77;4.50;;;;;;;3.14;100.00;99827.69;4984015;28;20297;-69
2023/03/08 09:53:34;;;;;;;8.50;4.80;;;;;;;3.03;100.00;99818.88;4986496;28;20219;-70
2023/03/08 09:56:02;;;;;;;7.27;4.70;;;;;;;3.01;100.00;99819.63;4984942;28;20756;-70
2023/03/08 09:58:37;;;;;;;7.43;4.87;;;;;;;2.96;100.00;99838.84;4987665;28;20188;-70
2023/03/08 10:01:28;;;;;;;10.00;5.13;;;;;;;3.00;100.00;99828.91;4989526;28;20213;-70
2023/03/08 10:04:03;;;;;;;11.57;5.40;;;;;;;3.02;100.00;99827.28;4981252;28;20227;-70
2023/03/08 10:06:49;;;;;;;9.17;4.83;;;;;;;2.95;100.00;99812.72;4987248;28;20541;-70
2023/03/08 10:09:26;;;;;;;8.00;4.67;;;;;;;2.91;100.00;99810.91;4988192;28;20237;-70
2023/03/08 10:12:13;;;;;;;6.53;4.47;;;;;;;2.95;100.00;99805.13;4987487;28;20218;-70
2023/03/08 10:14:44;;;;;;;5.80;4.60;;;;;;;3.07;100.00;99797.94;4988660;28;20375;-70
2023/03/08 10:17:18;;;;;;;10.27;4.30;;;;;;;3.07;100.00;99782.78;4987364;28;20239;-70
2023/03/08 10:19:57;;;;;;;7.57;4.37;;;;;;;3.04;100.00;99777.59;4987373;28;20214;-70
2023/03/08 10:22:33;;;;;;;4.97;4.07;;;;;;;2.92;100.00;99791.53;4987964;28;20257;-70
2023/03/08 10:25:23;;;;;;;7.77;4.33;;;;;;;2.94;100.00;99795.00;4984237;28;20215;-69
2023/03/08 10:27:53;;;;;;;6.73;4.43;;;;;;;2.98;100.00;99789.19;4987799;28;20270;-70
2023/03/08 10:30:20;;;;;;;7.57;4.30;;;;;;;2.97;100.00;99788.34;4984753;28;20704;-69
2023/03/08 10:32:49;;;;;;;7.00;4.57;;;;;;;2.99;100.00;99774.09;4988065;28;20211;-69
2023/03/08 10:35:16;;;;;;;7.20;4.00;;;;;;;3.04;100.00;99772.56;4982277;28;20228;-70
2023/03/08 10:37:41;;;;;;;7.00;4.47;;;;;;;3.21;100.00;99760.44;4994523;28;20233;-70
2023/03/08 10:40:14;;;;;;;8.70;4.40;;;;;;;3.28;100.00;99757.28;4992829;28;20274;-70
2023/03/08 10:42:47;;;;;;;7.83;4.90;;;;;;;3.39;100.00;99759.34;4992876;28;20194;-69
2023/03/08 10:45:20;;;;;;;8.67;4.90;;;;;;;3.51;100.00;99741.13;4985775;28;20259;-69
2023/03/08 10:47:56;;;;;;;9.77;4.83;;;;;;;3.55;100.00;99732.81;4990349;28;20333;-69
2023/03/08 10:50:25;;;;;;;6.67;4.07;;;;;;;3.75;100.00;99719.03;4989771;28;20191;-69
2023/03/08 10:52:50;;;;;;;8.60;4.57;;;;;;;3.74;100.00;99709.75;4994387;28;20681;-69
2023/03/08 10:55:29;;;;;;;8.10;4.53;;;;;;;3.84;100.00;99704.09;4989009;28;20215;-69
2023/03/08 10:57:56;;;;;;;8.07;4.30;;;;;;;4.03;100.00;99706.31;4986731;28;20217;-70
2023/03/08 11:00:52;;;;;;;7.00;3.87;;;;;;;4.14;100.00;99677.91;4985606;28;20691;-70
2023/03/08 11:03:23;;;;;;;5.97;3.80;;;;;;;4.18;100.00;99658.63;4990115;28;20231;-70
2023/03/08 11:05:53;;;;;;;4.93;4.33;;;;;;;4.32;100.00;99635.31;4991172;28;20606;-70
2023/03/08 11:08:25;;;;;;;4.80;3.70;;;;;;;4.19;100.00;99617.25;4987579;28;20204;-69
2023/03/08 11:11:06;;;;;;;5.60;4.17;;;;;;;4.27;100.00;99629.28;4988165;28;20202;-70
2023/03/08 11:13:46;;;;;;;6.33;4.27;;;;;;;4.15;100.00;99631.50;4993647;28;20278;-70
2023/03/08 11:16:33;;;;;;;7.10;4.33;;;;;;;4.10;100.00;99635.59;4990712;28;20221;-71
2023/03/08 11:19:13;;;;;;;6.27;4.10;;;;;;;4.28;100.00;99645.34;4987042;28;20243;-69
2023/03/08 11:22:11;;;;;;;7.07;4.20;;;;;;;4.47;100.00;99630.59;4994021;28;20832;-69
2023/03/08 11:24:51;;;;;;;11.00;4.00;;;;;;;4.61;100.00;99585.31;4986851;28;20216;-70
2023/03/08 11:27:32;;;;;;;4.90;3.87;;;;;;;4.77;100.00;99544.25;4990952;28;20869;-70
2023/03/08 11:30:09;;;;;;;6.83;4.10;;;;;;;4.97;100.00;99515.94;4987029;28;20206;-70